createdAt,value
2022-12-15T00:00:13.042Z,30.77
2022-12-15T00:02:57.971Z,24.60
2022-12-15T00:05:43.029Z,28.20
2022-12-15T00:08:29.227Z,24.20
2022-12-15T00:11:14.655Z,26.67
2022-12-15T00:14:00.189Z,24.60
2022-12-15T00:16:46.133Z,26.87
2022-12-15T00:19:31.142Z,26.07
2022-12-15T00:22:16.250Z,25.67
2022-12-15T00:25:01.392Z,23.73
2022-12-15T00:27:47.054Z,26.40
2022-12-15T00:30:32.194Z,33.73
2022-12-15T00:33:17.241Z,24.47
2022-12-15T00:36:02.348Z,26.60
2022-12-15T00:38:42.699Z,22.03
2022-12-15T00:41:10.319Z,24.50
2022-12-15T00:43:37.346Z,27.30
2022-12-15T00:46:23.630Z,24.63
2022-12-15T00:48:52.760Z,27.13
2022-12-15T00:51:19.902Z,21.77
2022-12-15T00:54:06.344Z,22.13
2022-12-15T00:56:51.343Z,23.53
2022-12-15T00:59:38.746Z,25.40
2022-12-15T01:02:24.368Z,22.30
2022-12-15T01:05:09.369Z,21.13
2022-12-15T01:07:54.257Z,22.23
2022-12-15T01:10:39.560Z,23.20
2022-12-15T01:13:25.435Z,23.37
2022-12-15T01:16:10.751Z,25.60
2022-12-15T01:18:56.142Z,26.47
2022-12-15T01:21:24.938Z,26.33
2022-12-15T01:23:54.895Z,21.40
2022-12-15T01:26:23.958Z,22.53
2022-12-15T01:28:50.510Z,28.13
2022-12-15T01:31:17.128Z,27.80
2022-12-15T01:33:48.437Z,22.83
2022-12-15T01:36:14.976Z,24.80
2022-12-15T01:38:45.093Z,23.30
2022-12-15T01:41:17.000Z,24.07
2022-12-15T01:43:43.536Z,26.87
2022-12-15T01:46:13.979Z,24.00
2022-12-15T01:48:46.739Z,23.40
2022-12-15T01:51:31.553Z,21.93
2022-12-15T01:54:00.309Z,21.77
2022-12-15T01:56:37.061Z,23.63
2022-12-15T01:59:07.644Z,27.47
2022-12-15T02:01:34.663Z,24.63
2022-12-15T02:04:01.804Z,26.73
2022-12-15T02:06:29.640Z,25.43
2022-12-15T02:08:59.577Z,22.53
2022-12-15T02:11:45.025Z,24.37
2022-12-15T02:14:14.649Z,31.03
2022-12-15T02:16:47.230Z,32.30
2022-12-15T02:19:35.140Z,25.33
2022-12-15T02:22:23.109Z,29.17
2022-12-15T02:25:06.552Z,29.50
2022-12-15T02:28:05.217Z,31.30
2022-12-15T02:31:12.694Z,23.83
2022-12-15T02:33:50.678Z,24.13
2022-12-15T02:36:26.656Z,25.83
2022-12-15T02:38:55.644Z,31.23
2022-12-15T02:41:32.485Z,27.30
2022-12-15T02:43:59.712Z,23.53
2022-12-15T02:46:42.158Z,27.87
2022-12-15T02:49:27.741Z,26.03
2022-12-15T02:52:24.654Z,28.97
2022-12-15T02:55:11.405Z,26.73
2022-12-15T02:57:43.793Z,25.77
2022-12-15T03:00:12.059Z,25.43
2022-12-15T03:02:42.597Z,29.37
2022-12-15T03:05:09.956Z,27.50
2022-12-15T03:07:36.692Z,30.80
2022-12-15T03:10:06.305Z,30.70
2022-12-15T03:12:32.888Z,26.50
2022-12-15T03:14:59.437Z,28.90
2022-12-15T03:17:25.963Z,27.73
2022-12-15T03:19:52.800Z,29.60
2022-12-15T03:22:19.318Z,31.90
2022-12-15T03:24:45.798Z,33.00
2022-12-15T03:27:12.357Z,30.50
2022-12-15T03:29:38.908Z,29.60
2022-12-15T03:32:08.627Z,35.40
2022-12-15T03:34:35.273Z,26.30
2022-12-15T03:37:04.147Z,31.80
2022-12-15T03:39:33.435Z,27.63
2022-12-15T03:41:59.995Z,27.47
2022-12-15T03:44:26.605Z,30.43
2022-12-15T03:47:03.526Z,26.93
2022-12-15T03:49:30.482Z,31.17
2022-12-15T03:51:59.330Z,33.33
2022-12-15T03:54:25.876Z,29.70
2022-12-15T03:56:55.043Z,32.13
2022-12-15T03:59:21.656Z,30.43
2022-12-15T04:01:49.383Z,32.43
2022-12-15T04:04:16.125Z,29.53
2022-12-15T04:06:42.653Z,30.13
2022-12-15T04:09:09.198Z,29.03
2022-12-15T04:11:38.081Z,29.83
2022-12-15T04:14:04.735Z,32.17
2022-12-15T04:16:31.976Z,32.33
2022-12-15T04:19:17.120Z,29.53
2022-12-15T04:21:43.714Z,30.43
2022-12-15T04:24:28.906Z,33.80
2022-12-15T04:27:13.745Z,28.77
2022-12-15T04:29:58.661Z,30.03
2022-12-15T04:32:44.069Z,28.37
2022-12-15T04:35:35.170Z,27.00
2022-12-15T04:38:20.554Z,29.07
2022-12-15T04:41:05.868Z,38.33
2022-12-15T04:43:51.373Z,28.10
2022-12-15T04:46:38.971Z,32.27
2022-12-15T04:49:24.114Z,28.93
2022-12-15T04:52:09.095Z,28.43
2022-12-15T04:54:54.476Z,32.67
2022-12-15T04:57:39.403Z,32.40
2022-12-15T05:00:25.396Z,35.67
2022-12-15T05:03:16.528Z,32.27
2022-12-15T05:06:03.323Z,28.30
2022-12-15T05:08:50.257Z,27.87
2022-12-15T05:11:35.713Z,28.23
2022-12-15T05:14:21.321Z,31.20
2022-12-15T05:17:06.796Z,29.17
2022-12-15T05:19:52.223Z,31.87
2022-12-15T05:22:39.981Z,32.17
2022-12-15T05:25:25.701Z,31.80
2022-12-15T05:28:10.623Z,29.40
2022-12-15T05:30:55.613Z,42.47
2022-12-15T05:33:24.463Z,29.37
2022-12-15T05:35:51.060Z,32.53
2022-12-15T05:38:18.557Z,29.77
2022-12-15T05:40:45.060Z,31.63
2022-12-15T05:43:11.635Z,37.10
2022-12-15T05:45:38.192Z,31.07
2022-12-15T05:48:05.006Z,29.77
2022-12-15T05:50:33.853Z,27.80
2022-12-15T05:53:00.383Z,32.97
2022-12-15T05:55:26.995Z,27.83
2022-12-15T05:57:54.389Z,35.60
2022-12-15T06:00:21.426Z,31.07
2022-12-15T06:02:48.380Z,28.87
2022-12-15T06:05:17.196Z,31.73
2022-12-15T06:07:43.695Z,30.50
2022-12-15T06:10:10.630Z,28.97
2022-12-15T06:12:39.477Z,35.47
2022-12-15T06:15:08.854Z,33.40
2022-12-15T06:17:35.505Z,30.30
2022-12-15T06:20:07.570Z,31.53
2022-12-15T06:22:36.304Z,36.27
2022-12-15T06:25:02.963Z,34.03
2022-12-15T06:27:37.638Z,36.07
2022-12-15T06:30:04.875Z,34.07
2022-12-15T06:32:35.357Z,32.50
2022-12-15T06:35:02.106Z,33.13
2022-12-15T06:37:28.678Z,31.57
2022-12-15T06:39:55.171Z,30.00
2022-12-15T06:42:24.106Z,32.53
2022-12-15T06:44:50.763Z,29.43
2022-12-15T06:47:17.951Z,30.53
2022-12-15T06:49:44.489Z,43.20
2022-12-15T06:52:13.473Z,36.27
2022-12-15T06:54:40.023Z,34.17
2022-12-15T06:57:06.887Z,36.67
2022-12-15T06:59:33.490Z,36.13
2022-12-15T07:02:00.699Z,41.13
2022-12-15T07:04:27.498Z,39.03
2022-12-15T07:06:54.149Z,34.53
2022-12-15T07:09:20.724Z,35.87
2022-12-15T07:11:50.311Z,39.17
2022-12-15T07:14:16.881Z,36.63
2022-12-15T07:16:46.197Z,37.87
2022-12-15T07:19:13.371Z,36.80
2022-12-15T07:21:41.164Z,37.53
2022-12-15T07:24:11.601Z,34.90
2022-12-15T07:26:38.274Z,42.53
2022-12-15T07:29:04.928Z,40.50
2022-12-15T07:31:32.221Z,38.07
2022-12-15T07:33:59.407Z,36.63
2022-12-15T07:36:27.545Z,36.50
2022-12-15T07:39:00.954Z,33.27
2022-12-15T07:41:30.508Z,34.87
2022-12-15T07:43:59.912Z,35.33
2022-12-15T07:46:26.596Z,37.80
2022-12-15T07:48:53.496Z,37.77
2022-12-15T07:51:21.589Z,37.87
2022-12-15T07:53:51.389Z,39.03
2022-12-15T07:56:21.210Z,43.70
2022-12-15T07:58:48.187Z,40.87
2022-12-15T08:01:15.660Z,47.00
2022-12-15T08:03:42.540Z,47.15
2022-12-15T08:06:13.053Z,43.60
2022-12-15T08:08:40.501Z,39.63
2022-12-15T08:11:09.361Z,47.50
2022-12-15T08:16:23.287Z,47.07
2022-12-15T08:18:49.922Z,45.00
2022-12-15T08:21:17.835Z,42.63
2022-12-15T08:23:44.571Z,47.00
2022-12-15T08:26:16.942Z,34.00
2022-12-15T08:28:43.701Z,38.67
2022-12-15T08:31:18.679Z,45.03
2022-12-15T08:33:46.389Z,40.43
2022-12-15T08:36:15.300Z,38.53
2022-12-15T08:38:46.022Z,42.37
2022-12-15T08:41:18.427Z,52.13
2022-12-15T08:43:48.992Z,42.23
2022-12-15T08:46:23.527Z,40.03
2022-12-15T08:48:52.892Z,38.07
2022-12-15T08:51:20.121Z,41.10
2022-12-15T08:53:47.356Z,44.10
2022-12-15T08:56:22.204Z,45.73
2022-12-15T08:58:50.457Z,43.03
2022-12-15T09:01:24.172Z,41.10
2022-12-15T09:03:55.924Z,39.70
2022-12-15T09:06:31.937Z,42.20
2022-12-15T09:09:00.893Z,42.97
2022-12-15T09:11:29.133Z,39.90
2022-12-15T09:13:56.152Z,40.20
2022-12-15T09:16:23.532Z,41.00
2022-12-15T09:18:54.561Z,42.53
2022-12-15T09:21:23.304Z,41.30
2022-12-15T09:23:52.035Z,43.07
2022-12-15T09:26:22.600Z,42.83
2022-12-15T09:28:50.656Z,49.53
2022-12-15T09:31:23.512Z,45.57
2022-12-15T09:33:52.842Z,41.80
2022-12-15T09:36:19.758Z,42.53
2022-12-15T09:38:46.381Z,46.43
2022-12-15T09:41:12.826Z,50.73
2022-12-15T09:44:13.040Z,113.10
2022-12-15T09:46:57.907Z,54.93
2022-12-15T09:49:36.596Z,39.00
2022-12-15T09:52:14.640Z,37.73
2022-12-15T09:54:43.263Z,46.53
2022-12-15T09:57:50.747Z,37.87
2022-12-15T10:00:55.144Z,45.47
2022-12-15T10:03:45.077Z,41.87
2022-12-15T10:06:18.485Z,46.60
2022-12-15T10:08:57.583Z,46.60
2022-12-15T10:11:24.116Z,39.93
2022-12-15T10:13:59.869Z,39.77
2022-12-15T10:16:34.429Z,52.27
2022-12-15T10:19:03.932Z,44.73
2022-12-15T10:21:31.724Z,40.87
2022-12-15T10:24:12.299Z,41.20
2022-12-15T10:26:41.411Z,42.53
2022-12-15T10:29:50.983Z,41.23
2022-12-15T10:32:39.352Z,40.13
2022-12-15T10:35:33.900Z,43.00
2022-12-15T10:38:03.786Z,45.80
2022-12-15T10:43:37.192Z,43.43
2022-12-15T10:46:19.621Z,44.80
2022-12-15T10:48:49.172Z,50.53
2022-12-15T10:51:24.938Z,43.33
2022-12-15T10:54:15.665Z,46.90
2022-12-15T10:56:51.348Z,48.37
2022-12-15T10:59:37.097Z,41.47
2022-12-15T11:02:25.209Z,44.73
2022-12-15T11:05:04.841Z,43.23
2022-12-15T11:07:37.472Z,46.47
2022-12-15T11:10:53.267Z,38.33
2022-12-15T11:13:23.096Z,44.60
2022-12-15T11:15:53.282Z,43.37
2022-12-15T11:18:24.537Z,39.13
2022-12-15T11:21:02.576Z,41.07
2022-12-15T11:23:46.790Z,40.13
2022-12-15T11:26:22.993Z,40.70
2022-12-15T11:29:20.796Z,45.77
2022-12-15T11:31:53.225Z,46.17
2022-12-15T11:34:37.791Z,42.13
2022-12-15T11:37:16.433Z,37.10
2022-12-15T11:40:13.262Z,39.10
2022-12-15T11:43:12.613Z,45.25
2022-12-15T11:46:10.103Z,47.40
2022-12-15T11:49:11.304Z,44.87
2022-12-15T11:52:02.321Z,36.17
2022-12-15T11:54:46.981Z,44.37
2022-12-15T11:57:30.677Z,41.90
2022-12-15T12:00:03.269Z,44.08
2022-12-15T12:02:39.243Z,39.07
2022-12-15T12:05:44.793Z,38.57
2022-12-15T12:08:43.909Z,36.63
2022-12-15T12:11:20.078Z,38.07
2022-12-15T12:14:11.691Z,38.93
2022-12-15T12:16:50.570Z,36.13
2022-12-15T12:19:31.936Z,38.30
2022-12-15T12:22:20.185Z,36.33
2022-12-15T12:25:02.216Z,40.63
2022-12-15T12:27:53.161Z,43.10
2022-12-15T12:30:31.330Z,39.40
2022-12-15T12:33:37.990Z,36.60
2022-12-15T12:36:16.073Z,39.10
2022-12-15T12:38:56.099Z,37.07
2022-12-15T12:41:53.439Z,39.93
2022-12-15T12:44:34.250Z,34.07
2022-12-15T12:47:10.215Z,36.77
2022-12-15T12:49:44.012Z,34.97
2022-12-15T12:52:28.123Z,36.33
2022-12-15T12:54:59.748Z,40.10
2022-12-15T12:57:36.885Z,37.43
2022-12-15T13:00:21.287Z,38.42
2022-12-15T13:03:09.990Z,36.83
2022-12-15T13:05:38.058Z,40.83
2022-12-15T13:08:05.107Z,37.53
2022-12-15T13:10:37.413Z,36.03
2022-12-15T13:13:16.325Z,40.03
2022-12-15T13:15:50.974Z,34.20
2022-12-15T13:18:25.487Z,37.93
2022-12-15T13:20:57.071Z,38.37
2022-12-15T13:23:23.634Z,36.80
2022-12-15T13:25:55.987Z,30.70
2022-12-15T13:28:29.079Z,36.33
2022-12-15T13:31:17.982Z,35.00
2022-12-15T13:33:57.369Z,35.80
2022-12-15T13:36:43.536Z,32.70
2022-12-15T13:39:12.896Z,33.70
2022-12-15T13:42:23.647Z,37.37
2022-12-15T13:44:41.220Z,42.43
2022-12-15T13:47:17.760Z,40.53
2022-12-15T13:50:08.955Z,43.47
2022-12-15T13:53:17.351Z,34.70
2022-12-15T13:55:41.839Z,34.37
2022-12-15T13:58:11.411Z,34.83
2022-12-15T14:00:39.850Z,35.57
2022-12-15T14:03:11.150Z,34.60
2022-12-15T14:05:43.062Z,35.93
2022-12-15T14:08:19.034Z,32.50
2022-12-15T14:10:52.680Z,35.53
2022-12-15T14:13:50.568Z,39.17
2022-12-15T14:16:23.062Z,38.37
2022-12-15T14:19:08.551Z,33.60
2022-12-15T14:21:35.323Z,37.27
2022-12-15T14:24:37.136Z,40.50
2022-12-15T14:26:50.731Z,35.93
2022-12-15T14:29:17.509Z,38.83
2022-12-15T14:31:48.295Z,35.13
2022-12-15T14:34:29.237Z,37.03
2022-12-15T14:36:59.521Z,38.83
2022-12-15T14:39:50.181Z,41.20
2022-12-15T14:42:25.863Z,32.90
2022-12-15T14:44:57.848Z,33.00
2022-12-15T14:48:30.313Z,38.80
2022-12-15T14:50:47.790Z,41.33
2022-12-15T14:53:19.910Z,44.47
2022-12-15T14:55:46.573Z,36.63
2022-12-15T14:58:34.678Z,41.33
2022-12-15T15:01:21.427Z,34.77
2022-12-15T15:03:06.720Z,48.35
2022-12-15T15:03:57.524Z,36.30
2022-12-15T15:06:33.537Z,41.25
2022-12-15T15:09:15.060Z,38.70
2022-12-15T15:11:42.961Z,36.20
2022-12-15T15:14:15.537Z,34.43
2022-12-15T15:16:42.977Z,37.50
2022-12-15T15:19:21.497Z,37.80
2022-12-15T15:21:48.493Z,34.47
2022-12-15T15:24:17.341Z,34.00
2022-12-15T15:26:44.135Z,37.13
2022-12-15T15:29:37.323Z,35.80
2022-12-15T15:32:16.048Z,38.77
2022-12-15T15:34:45.045Z,43.23
2022-12-15T15:37:24.950Z,36.77
2022-12-15T15:39:55.905Z,40.30
2022-12-15T15:42:26.583Z,50.08
2022-12-15T15:45:00.510Z,40.10
2022-12-15T15:47:27.451Z,39.50
2022-12-15T15:49:58.653Z,36.67
2022-12-15T15:52:25.917Z,37.97
2022-12-15T15:54:53.579Z,43.30
2022-12-15T15:57:20.359Z,39.33
2022-12-15T15:59:47.842Z,34.37
2022-12-15T16:02:14.895Z,40.27
2022-12-15T16:04:43.353Z,40.43
2022-12-15T16:07:28.681Z,34.47
2022-12-15T16:09:58.040Z,46.13
2022-12-15T16:12:29.861Z,43.10
2022-12-15T16:14:56.501Z,42.47
2022-12-15T16:17:24.381Z,48.45
2022-12-15T16:19:51.058Z,47.40
2022-12-15T16:22:20.299Z,50.43
2022-12-15T16:24:47.421Z,46.50
2022-12-15T16:27:15.313Z,46.17
2022-12-15T16:29:41.913Z,48.05
2022-12-15T16:32:10.696Z,49.27
2022-12-15T16:34:37.316Z,50.53
2022-12-15T16:37:14.460Z,49.90
2022-12-15T16:39:41.030Z,49.40
2022-12-15T16:42:12.054Z,48.67
2022-12-15T16:44:38.574Z,45.90
2022-12-15T16:47:05.179Z,46.63
2022-12-15T16:49:36.607Z,56.00
2022-12-15T16:52:06.503Z,61.60
2022-12-15T16:54:33.215Z,47.47
2022-12-15T16:57:02.203Z,51.00
2022-12-15T16:59:33.920Z,49.50
2022-12-15T17:02:01.605Z,46.30
2022-12-15T17:04:28.229Z,44.00
2022-12-15T17:06:57.107Z,46.97
2022-12-15T17:09:25.611Z,48.20
2022-12-15T17:12:02.424Z,50.53
2022-12-15T17:14:28.968Z,48.03
2022-12-15T17:16:55.700Z,45.40
2022-12-15T17:19:22.255Z,43.43
2022-12-15T17:21:52.485Z,47.60
2022-12-15T17:24:22.333Z,46.73
2022-12-15T17:26:51.359Z,49.87
2022-12-15T17:29:21.331Z,49.27
2022-12-15T17:31:48.027Z,47.33
2022-12-15T17:34:36.250Z,51.27
2022-12-15T17:37:07.581Z,54.73
2022-12-15T17:39:35.304Z,55.60
2022-12-15T17:42:16.545Z,50.13
2022-12-15T17:44:46.639Z,52.53
2022-12-15T17:47:14.698Z,56.38
2022-12-15T17:49:41.528Z,53.10
2022-12-15T17:52:16.651Z,51.33
2022-12-15T17:54:46.799Z,60.00
2022-12-15T17:57:13.374Z,55.53
2022-12-15T17:59:39.946Z,60.43
2022-12-15T18:02:08.730Z,60.37
2022-12-15T18:04:35.349Z,56.47
2022-12-15T18:07:02.672Z,57.13
2022-12-15T18:09:30.776Z,64.63
2022-12-15T18:11:57.365Z,58.83
2022-12-15T18:14:27.752Z,55.23
2022-12-15T18:16:56.355Z,62.97
2022-12-15T18:19:23.313Z,63.77
2022-12-15T18:21:49.853Z,55.53
2022-12-15T18:24:19.266Z,60.93
2022-12-15T18:26:45.790Z,69.00
2022-12-15T18:29:18.181Z,67.23
2022-12-15T18:31:49.408Z,69.60
2022-12-15T18:34:19.327Z,66.23
2022-12-15T18:36:45.936Z,67.80
2022-12-15T18:39:26.958Z,55.80
2022-12-15T18:41:55.948Z,69.47
2022-12-15T18:44:25.851Z,66.00
2022-12-15T18:46:55.542Z,75.13
2022-12-15T18:49:23.587Z,69.27
2022-12-15T18:51:50.603Z,66.50
2022-12-15T18:54:26.731Z,69.87
2022-12-15T18:56:55.781Z,60.67
2022-12-15T18:59:22.337Z,62.23
2022-12-15T19:01:49.181Z,66.30
2022-12-15T19:04:15.948Z,61.77
2022-12-15T19:06:45.174Z,62.33
2022-12-15T19:09:16.307Z,63.40
2022-12-15T19:12:08.039Z,64.43
2022-12-15T19:14:43.098Z,61.50
2022-12-15T19:17:40.330Z,63.80
2022-12-15T19:20:33.423Z,64.70
2022-12-15T19:23:00.237Z,70.60
2022-12-15T19:25:30.833Z,60.83
2022-12-15T19:27:59.725Z,68.60
2022-12-15T19:30:29.335Z,64.80
2022-12-15T19:32:56.361Z,61.67
2022-12-15T19:35:25.194Z,63.60
2022-12-15T19:37:55.162Z,58.67
2022-12-15T19:40:29.303Z,63.33
2022-12-15T19:42:56.544Z,69.67
2022-12-15T19:45:25.413Z,63.20
2022-12-15T19:47:54.360Z,59.23
2022-12-15T19:50:24.210Z,56.93
2022-12-15T19:52:55.253Z,67.05
2022-12-15T19:55:27.933Z,66.33
2022-12-15T19:57:54.426Z,58.00
2022-12-15T20:00:27.368Z,54.93
2022-12-15T20:02:57.828Z,55.47
2022-12-15T20:05:27.507Z,54.93
2022-12-15T20:07:54.991Z,58.50
2022-12-15T20:10:32.368Z,54.50
2022-12-15T20:13:03.339Z,62.53
2022-12-15T20:15:29.919Z,51.20
2022-12-15T20:17:57.066Z,56.17
2022-12-15T20:20:26.997Z,54.87
2022-12-15T20:22:56.447Z,52.13
2022-12-15T20:25:26.764Z,51.20
2022-12-15T20:27:53.773Z,49.80
2022-12-15T20:30:27.633Z,63.77
2022-12-15T20:32:54.296Z,54.23
2022-12-15T20:35:24.720Z,53.57
2022-12-15T20:37:52.593Z,53.80
2022-12-15T20:40:25.547Z,56.57
2022-12-15T20:42:56.643Z,58.47
2022-12-15T20:45:28.104Z,63.40
2022-12-15T20:47:58.011Z,57.27
2022-12-15T20:50:37.369Z,55.60
2022-12-15T20:53:06.075Z,51.80
2022-12-15T20:55:32.771Z,54.40
2022-12-15T20:57:59.300Z,54.50
2022-12-15T21:00:25.856Z,58.37
2022-12-15T21:02:55.244Z,53.40
2022-12-15T21:05:24.892Z,57.80
2022-12-15T21:07:52.402Z,53.53
2022-12-15T21:10:20.546Z,53.80
2022-12-15T21:12:49.312Z,52.27
2022-12-15T21:15:20.350Z,51.50
2022-12-15T21:17:57.936Z,53.37
2022-12-15T21:20:30.358Z,55.40
2022-12-15T21:22:59.649Z,53.13
2022-12-15T21:25:26.676Z,51.80
2022-12-15T21:27:53.267Z,63.03
2022-12-15T21:30:22.742Z,55.03
2022-12-15T21:32:50.878Z,54.07
2022-12-15T21:35:19.091Z,54.63
2022-12-15T21:37:49.628Z,53.40
2022-12-15T21:40:20.722Z,49.97
2022-12-15T21:42:48.753Z,59.80
2022-12-15T21:45:20.774Z,64.18
2022-12-15T21:48:06.903Z,60.42
2022-12-15T21:50:34.475Z,51.37
2022-12-15T21:53:04.950Z,55.63
2022-12-15T21:55:33.971Z,53.63
2022-12-15T21:58:00.624Z,52.87
2022-12-15T22:00:27.391Z,55.10
2022-12-15T22:02:54.500Z,55.33
2022-12-15T22:05:24.516Z,55.37
2022-12-15T22:07:51.596Z,52.40
2022-12-15T22:10:18.286Z,57.93
2022-12-15T22:12:50.706Z,54.97
2022-12-15T22:15:24.079Z,53.20
2022-12-15T22:17:50.765Z,54.57
2022-12-15T22:20:20.771Z,57.00
2022-12-15T22:22:50.179Z,51.70
2022-12-15T22:25:22.004Z,54.03
2022-12-15T22:27:48.869Z,55.67
2022-12-15T22:30:21.042Z,59.07
2022-12-15T22:32:47.787Z,48.97
2022-12-15T22:35:22.445Z,57.03
2022-12-15T22:37:54.033Z,54.53
2022-12-15T22:40:23.273Z,63.67
2022-12-15T22:42:54.855Z,55.63
2022-12-15T22:45:24.172Z,55.57
2022-12-15T22:47:52.386Z,58.13
2022-12-15T22:50:22.327Z,55.87
2022-12-15T22:52:51.109Z,58.13
2022-12-15T22:55:20.586Z,59.33
2022-12-15T22:57:57.657Z,64.00
2022-12-15T23:00:24.215Z,55.50
2022-12-15T23:02:51.044Z,59.10
2022-12-15T23:05:20.139Z,57.37
2022-12-15T23:07:47.163Z,61.77
2022-12-15T23:10:35.091Z,55.37
2022-12-15T23:13:01.602Z,54.17
2022-12-15T23:15:50.343Z,59.90
2022-12-15T23:18:18.454Z,51.77
2022-12-15T23:20:45.512Z,61.13
2022-12-15T23:23:12.542Z,60.83
2022-12-15T23:25:39.083Z,54.33
2022-12-15T23:28:05.686Z,59.03
2022-12-15T23:30:34.709Z,58.97
2022-12-15T23:33:01.277Z,60.07
2022-12-15T23:35:30.085Z,50.57
2022-12-15T23:37:58.251Z,54.13
2022-12-15T23:40:27.039Z,51.93
2022-12-15T23:42:55.846Z,52.00
2022-12-15T23:45:27.987Z,56.13
2022-12-15T23:47:54.508Z,55.20
2022-12-15T23:50:21.081Z,55.40
2022-12-15T23:52:51.278Z,56.47
2022-12-15T23:55:19.220Z,53.77
2022-12-15T23:57:48.395Z,50.57
